Terminal Aerodrome Forecast
Issued by NWS

Home | Current Version | Previous Version | Text Only | Print | Product List | Glossary On
Versions: 1 2 3 4 5 6 7 8 9 10 11 12 13 14 15 16 17 18 19 20 21 22 23 24 25 26 27 28 29 30 31 32 33 34 35 36 37 38 39 40 41
000
FTAK31 PANC 301121
TAFADU
TAF
PADU 301121Z 3012/3112 02015G25KT P6SM -RASN BKN022 OVC030
     FM301500 01029G38KT 3SM -RASN BR OVC020
     FM310200 35028G38KT 3SM -SN BLSN BKN012 OVC020=

USA.gov is the U.S. government's official web portal to all federal, state and local government web resources and services.